Mobridge, SD

6:56 AM CDT on August 20, 2014 (GMT -0500)
NCSD Skywarn | Change Station
CLOSE
Current Station
Personal Weather Station
Location: Mobridge, SD
Elevation: 1677 ft
Nearby Weather Stations

Elev 1677 ft 45.54 °N, 100.44 °W | Updated 2 seconds ago

Clear
Clear
66.0 °F
Feels Like 66.0 °F
N
3.8
Wind Variable Wind from South
Gusts 8.3 mph

Today
High -- | Low -- °F
--% Chance of Precip.
Yesterday
High -- | Low -- °F
Precip. -- in
6:48 AM 8:40 PM
Waning Crescent, 22% visible
Pressure 29.64 in
Visibility 10.0 miles
Clouds Clear
Dew Point 62 °F
Humidity 88%
Rainfall 0.00 in
Snow Depth Not available.
UV 0.0 out of 12
Pollen 7.70 out of 12
Air Quality Not available.
Flu Activity Not available.
METAR KMBG 201052Z AUTO 11006KT 10SM CLR 18/17 A2967 RMK AO2 SLP036 T01780172

More Conditions Fewer Conditions

Pressure 29.64 in
Visibility 10.0 miles
Clouds Clear
Dew Point 62 °F
Humidity 88%
Rainfall 0.00 in
Snow Depth Not available.
UV 0.0 out of 12
Pollen 7.70 out of 12
Air Quality Not available.
Flu Activity Not available.
METAR KMBG 201052Z AUTO 11006KT 10SM CLR 18/17 A2967 RMK AO2 SLP036 T01780172

More Conditions Fewer Conditions

10-Day Weather Forecast

Almanac

Astronomy

Aug. 20, 2014 Rise Set
Actual Time 6:48 AM CDT 8:40 PM CDT
Civil Twilight 6:16 AM CDT 9:12 PM CDT
Nautical Twilight 5:37 AM CDT 9:51 PM CDT
Astronomical Twilight 4:55 AM CDT 10:33 PM CDT
Moon 2:24 AM CDT 5:32 PM CDT
Length of Visible Light 14h 55m
Length of Day
13h 52m
Tomorrow will be 2m 56s shorter.
Waning Crescent, 22% of the Moon is Illuminated
Today
Waning Crescent
Aug 25
New
Sep 2
First Quarter
Sep 8
Full
Sep 15
Last Quarter

Today's Extremes

State Highs State Lows

Community

WunderPhotos

Upload Photos

1,745,611 photos uploaded!

WunderBlogs® & News

By Dr. Jeff Masters
Director of Meteorology, Weather Underground
By Kari Strenfel
Meteorologist, Weather Underground
By Christopher C. Burt
Weather Historian, Weather Underground
August 20, 2014
August 20, 2014
August 20, 2014

Nearby

Snow Depth

Station Depth Elevation
North Rapid Creek 0 in 6130 ft
Blind Park 0 in 6890 ft

Earthquake Activity

City Distance Mag. Time & Date
No recent earthquake activity has been reported nearby.
Minimum magnitude displayed is 2.5.

Coastal Water Temperatures

Place Temperature
No Stations Reporting

Nearby Weather Stations